Oden, MI (49764)

8:27 AM EDT on August 22, 2017 (GMT -0400)
Pickerel Lake | | Change Station

Elev 584 ft 45.40 °N, 84.77 °W | Updated 15 seconds ago

Overcast
Overcast
69.6 °F
Feels Like 69.6 °F
N
2.7
Wind Variable Wind from West
Gusts 5.4 mph

Today
High -- | Low -- °F
--% Chance of Precip.
Yesterday
High -- | Low -- °F
Precip. -- in
Pressure 29.65 in
Visibility 10.0 miles
Clouds Overcast 1500 ft
Dew Point 68 °F
Humidity 96%
Rainfall 0.30 in
Snow Depth Not available.
6:48 AM 8:34 PM
New Moon, 1% visible
METAR KMGN 221216Z AUTO 26007G15KT 230V290 10SM OVC015 20/19 A2965 RMK AO2 T02020193
Pressure 29.65 in
Visibility 10.0 miles
Clouds Overcast 1500 ft
Dew Point 68 °F
Humidity 96%
Rainfall 0.30 in
Snow Depth Not available.
6:48 AM 8:34 PM
New Moon, 1% visible
METAR KMGN 221216Z AUTO 26007G15KT 230V290 10SM OVC015 20/19 A2965 RMK AO2 T02020193

Get Severe Weather Alerts

Thanks for signing up!

Be on the lookout for a verification email in your inbox.

You'll start receiving the daily forecast at 6 AM.

×

10-Day Weather Forecast

Almanac

Astronomy

Aug. 22, 2017 Rise Set
Actual Time
Civil Twilight
Nautical Twilight
Astronomical Twilight
Moon
Length of Visible Light
Length of Day
Tomorrow will be .
, % of the Moon is Illuminated

Today's Extremes

State Highs State Lows

Community

WunderPhotos

Category 6

Welcome to Category 6. This is the collective home for Weather Underground's featured writeups by Dr. Jeff Masters (right), Bob Henson (left), Chris Burt, and other regular contributors.

Nearby

Air Quality

  Air Quality AQ Index Pollutant
Not available.

Snow Depth

Station Depth Elevation

Earthquake Activity

City Distance Mag. Time & Date
Minimum magnitude displayed is 2.5.

Coastal Water Temperatures

Place Temperature

Stations

Nearby Weather Stations

Station Location Temp. Windchill Dew Point Humidity Wind Precip. Elev Updated Type
                   

Watches & Warnings

There are currently no watches in effect.